sensor_id;sensor_type;location;lat;lon;timestamp;temperature;humidity
78788;DHT22;68131;52.508;5.502;2024-01-27T00:01:09;6.50;71.90
78788;DHT22;68131;52.508;5.502;2024-01-27T00:03:38;6.50;71.90
78788;DHT22;68131;52.508;5.502;2024-01-27T00:06:07;6.50;71.90
78788;DHT22;68131;52.508;5.502;2024-01-27T00:08:39;6.50;71.80
78788;DHT22;68131;52.508;5.502;2024-01-27T00:11:11;6.50;71.70
78788;DHT22;68131;52.508;5.502;2024-01-27T00:13:40;6.40;71.80
78788;DHT22;68131;52.508;5.502;2024-01-27T00:16:09;6.40;71.90
78788;DHT22;68131;52.508;5.502;2024-01-27T00:18:38;6.40;71.90
78788;DHT22;68131;52.508;5.502;2024-01-27T00:21:08;6.40;71.90
78788;DHT22;68131;52.508;5.502;2024-01-27T00:23:42;6.40;71.90
78788;DHT22;68131;52.508;5.502;2024-01-27T00:26:11;6.40;71.90
78788;DHT22;68131;52.508;5.502;2024-01-27T00:28:40;6.40;72.00
78788;DHT22;68131;52.508;5.502;2024-01-27T00:31:09;6.30;72.00
78788;DHT22;68131;52.508;5.502;2024-01-27T00:33:39;6.30;72.00
78788;DHT22;68131;52.508;5.502;2024-01-27T00:36:08;6.30;72.10
78788;DHT22;68131;52.508;5.502;2024-01-27T00:38:37;6.30;72.20
78788;DHT22;68131;52.508;5.502;2024-01-27T00:41:16;6.30;72.30
78788;DHT22;68131;52.508;5.502;2024-01-27T00:43:45;6.30;72.30
78788;DHT22;68131;52.508;5.502;2024-01-27T00:46:14;6.30;72.20
78788;DHT22;68131;52.508;5.502;2024-01-27T00:48:44;6.20;72.20
78788;DHT22;68131;52.508;5.502;2024-01-27T00:51:13;6.20;72.30
78788;DHT22;68131;52.508;5.502;2024-01-27T00:53:42;6.20;72.20
78788;DHT22;68131;52.508;5.502;2024-01-27T00:56:14;6.20;72.20
78788;DHT22;68131;52.508;5.502;2024-01-27T00:58:43;6.10;72.30
78788;DHT22;68131;52.508;5.502;2024-01-27T01:01:12;6.10;72.30
78788;DHT22;68131;52.508;5.502;2024-01-27T01:03:41;6.10;72.40
78788;DHT22;68131;52.508;5.502;2024-01-27T01:06:11;6.10;72.40
78788;DHT22;68131;52.508;5.502;2024-01-27T01:08:41;6.10;72.40
78788;DHT22;68131;52.508;5.502;2024-01-27T01:11:12;6.10;72.50
78788;DHT22;68131;52.508;5.502;2024-01-27T01:13:41;6.10;72.50
78788;DHT22;68131;52.508;5.502;2024-01-27T01:16:13;6.10;72.50
78788;DHT22;68131;52.508;5.502;2024-01-27T01:18:42;6.00;72.60
78788;DHT22;68131;52.508;5.502;2024-01-27T01:21:12;6.00;72.60
78788;DHT22;68131;52.508;5.502;2024-01-27T01:23:42;6.00;72.70
78788;DHT22;68131;52.508;5.502;2024-01-27T01:26:14;6.10;72.80
78788;DHT22;68131;52.508;5.502;2024-01-27T01:28:43;6.10;72.90
78788;DHT22;68131;52.508;5.502;2024-01-27T01:31:13;6.10;72.90
78788;DHT22;68131;52.508;5.502;2024-01-27T01:33:45;6.10;73.00
78788;DHT22;68131;52.508;5.502;2024-01-27T01:36:15;6.10;73.10
78788;DHT22;68131;52.508;5.502;2024-01-27T01:38:44;6.00;73.10
78788;DHT22;68131;52.508;5.502;2024-01-27T01:41:16;6.10;73.20
78788;DHT22;68131;52.508;5.502;2024-01-27T01:43:45;6.00;73.30
78788;DHT22;68131;52.508;5.502;2024-01-27T01:46:14;6.00;73.40
78788;DHT22;68131;52.508;5.502;2024-01-27T01:48:46;6.00;73.50
78788;DHT22;68131;52.508;5.502;2024-01-27T01:51:16;6.00;73.50
78788;DHT22;68131;52.508;5.502;2024-01-27T01:53:45;6.00;73.50
78788;DHT22;68131;52.508;5.502;2024-01-27T01:56:19;6.00;73.60
78788;DHT22;68131;52.508;5.502;2024-01-27T01:58:48;6.00;73.50
78788;DHT22;68131;52.508;5.502;2024-01-27T02:01:17;6.00;73.60
78788;DHT22;68131;52.508;5.502;2024-01-27T02:03:52;6.00;73.70
78788;DHT22;68131;52.508;5.502;2024-01-27T02:06:23;6.00;73.60
78788;DHT22;68131;52.508;5.502;2024-01-27T02:08:54;6.00;73.60
78788;DHT22;68131;52.508;5.502;2024-01-27T02:11:26;6.00;73.60
78788;DHT22;68131;52.508;5.502;2024-01-27T02:13:55;6.10;73.70
78788;DHT22;68131;52.508;5.502;2024-01-27T02:16:24;6.10;73.70
78788;DHT22;68131;52.508;5.502;2024-01-27T02:18:56;6.10;73.70
78788;DHT22;68131;52.508;5.502;2024-01-27T02:21:25;6.10;73.70
78788;DHT22;68131;52.508;5.502;2024-01-27T02:23:55;6.10;73.70
78788;DHT22;68131;52.508;5.502;2024-01-27T02:26:27;6.10;73.70
78788;DHT22;68131;52.508;5.502;2024-01-27T02:28:56;6.10;73.70
78788;DHT22;68131;52.508;5.502;2024-01-27T02:31:25;6.10;73.70
78788;DHT22;68131;52.508;5.502;2024-01-27T02:33:54;6.10;73.70
78788;DHT22;68131;52.508;5.502;2024-01-27T02:36:23;6.10;73.70
78788;DHT22;68131;52.508;5.502;2024-01-27T02:38:54;6.10;73.70
78788;DHT22;68131;52.508;5.502;2024-01-27T02:41:23;6.10;73.70
78788;DHT22;68131;52.508;5.502;2024-01-27T02:43:54;6.00;73.70
78788;DHT22;68131;52.508;5.502;2024-01-27T02:46:24;6.00;73.70
78788;DHT22;68131;52.508;5.502;2024-01-27T02:48:53;6.00;73.70
78788;DHT22;68131;52.508;5.502;2024-01-27T02:51:34;6.00;73.80
78788;DHT22;68131;52.508;5.502;2024-01-27T02:54:03;6.00;73.90
78788;DHT22;68131;52.508;5.502;2024-01-27T02:56:32;5.90;73.90
78788;DHT22;68131;52.508;5.502;2024-01-27T02:59:07;5.90;73.90
78788;DHT22;68131;52.508;5.502;2024-01-27T03:01:36;5.90;73.90
78788;DHT22;68131;52.508;5.502;2024-01-27T03:04:05;5.90;74.00
78788;DHT22;68131;52.508;5.502;2024-01-27T03:06:34;5.90;74.00
78788;DHT22;68131;52.508;5.502;2024-01-27T03:09:04;5.90;74.10
78788;DHT22;68131;52.508;5.502;2024-01-27T03:11:33;5.90;74.00
78788;DHT22;68131;52.508;5.502;2024-01-27T03:14:02;5.90;74.00
78788;DHT22;68131;52.508;5.502;2024-01-27T03:16:34;5.90;74.00
78788;DHT22;68131;52.508;5.502;2024-01-27T03:19:05;5.90;73.90
78788;DHT22;68131;52.508;5.502;2024-01-27T03:21:35;5.90;73.90
78788;DHT22;68131;52.508;5.502;2024-01-27T03:24:04;5.80;73.90
78788;DHT22;68131;52.508;5.502;2024-01-27T03:26:34;5.70;73.80
78788;DHT22;68131;52.508;5.502;2024-01-27T03:29:03;5.60;73.90
78788;DHT22;68131;52.508;5.502;2024-01-27T03:31:35;5.60;73.90
78788;DHT22;68131;52.508;5.502;2024-01-27T03:34:04;5.60;74.10
78788;DHT22;68131;52.508;5.502;2024-01-27T03:36:34;5.60;74.10
78788;DHT22;68131;52.508;5.502;2024-01-27T03:39:03;5.50;74.20
78788;DHT22;68131;52.508;5.502;2024-01-27T03:41:33;5.50;74.30
78788;DHT22;68131;52.508;5.502;2024-01-27T03:44:03;5.50;74.30
78788;DHT22;68131;52.508;5.502;2024-01-27T03:46:37;5.50;74.10
78788;DHT22;68131;52.508;5.502;2024-01-27T03:49:06;5.40;74.10
78788;DHT22;68131;52.508;5.502;2024-01-27T03:51:35;5.40;74.10
78788;DHT22;68131;52.508;5.502;2024-01-27T03:54:04;5.30;74.10
78788;DHT22;68131;52.508;5.502;2024-01-27T03:56:34;5.30;74.20
78788;DHT22;68131;52.508;5.502;2024-01-27T03:59:03;5.30;74.20
78788;DHT22;68131;52.508;5.502;2024-01-27T04:01:37;5.40;74.30
78788;DHT22;68131;52.508;5.502;2024-01-27T04:04:06;5.40;74.20
78788;DHT22;68131;52.508;5.502;2024-01-27T04:06:39;5.30;74.20
78788;DHT22;68131;52.508;5.502;2024-01-27T04:09:09;5.30;74.20
78788;DHT22;68131;52.508;5.502;2024-01-27T04:11:38;5.30;74.20
78788;DHT22;68131;52.508;5.502;2024-01-27T04:14:07;5.30;74.10
78788;DHT22;68131;52.508;5.502;2024-01-27T04:16:39;5.30;74.10
78788;DHT22;68131;52.508;5.502;2024-01-27T04:19:08;5.30;74.20
78788;DHT22;68131;52.508;5.502;2024-01-27T04:21:37;5.30;74.20
78788;DHT22;68131;52.508;5.502;2024-01-27T04:24:08;5.30;74.20
78788;DHT22;68131;52.508;5.502;2024-01-27T04:26:37;5.30;74.20
78788;DHT22;68131;52.508;5.502;2024-01-27T04:29:06;5.30;74.30
78788;DHT22;68131;52.508;5.502;2024-01-27T04:31:43;5.30;74.20
78788;DHT22;68131;52.508;5.502;2024-01-27T04:34:12;5.40;74.20
78788;DHT22;68131;52.508;5.502;2024-01-27T04:36:41;5.40;74.20
78788;DHT22;68131;52.508;5.502;2024-01-27T04:39:10;5.40;74.20
78788;DHT22;68131;52.508;5.502;2024-01-27T04:41:41;5.40;74.20
78788;DHT22;68131;52.508;5.502;2024-01-27T04:44:11;5.40;74.30
78788;DHT22;68131;52.508;5.502;2024-01-27T04:46:43;5.40;74.20
78788;DHT22;68131;52.508;5.502;2024-01-27T04:49:14;5.40;74.30
78788;DHT22;68131;52.508;5.502;2024-01-27T04:51:43;5.40;74.30
78788;DHT22;68131;52.508;5.502;2024-01-27T04:54:12;5.40;74.20
78788;DHT22;68131;52.508;5.502;2024-01-27T04:56:42;5.30;74.30
78788;DHT22;68131;52.508;5.502;2024-01-27T04:59:11;5.30;74.30
78788;DHT22;68131;52.508;5.502;2024-01-27T05:01:46;5.30;74.30
78788;DHT22;68131;52.508;5.502;2024-01-27T05:04:16;5.30;74.30
78788;DHT22;68131;52.508;5.502;2024-01-27T05:06:45;5.30;74.40
78788;DHT22;68131;52.508;5.502;2024-01-27T05:09:15;5.20;74.50
78788;DHT22;68131;52.508;5.502;2024-01-27T05:11:45;5.30;74.50
78788;DHT22;68131;52.508;5.502;2024-01-27T05:14:17;5.20;74.50
78788;DHT22;68131;52.508;5.502;2024-01-27T05:16:50;5.20;74.50
78788;DHT22;68131;52.508;5.502;2024-01-27T05:19:19;5.20;74.50
78788;DHT22;68131;52.508;5.502;2024-01-27T05:21:48;5.20;74.60
78788;DHT22;68131;52.508;5.502;2024-01-27T05:24:18;5.20;74.70
78788;DHT22;68131;52.508;5.502;2024-01-27T05:26:48;5.20;74.70
78788;DHT22;68131;52.508;5.502;2024-01-27T05:29:17;5.20;74.60
78788;DHT22;68131;52.508;5.502;2024-01-27T05:31:48;5.20;74.60
78788;DHT22;68131;52.508;5.502;2024-01-27T05:34:19;5.20;74.70
78788;DHT22;68131;52.508;5.502;2024-01-27T05:36:48;5.20;74.70
78788;DHT22;68131;52.508;5.502;2024-01-27T05:39:17;5.20;74.70
78788;DHT22;68131;52.508;5.502;2024-01-27T05:41:47;5.20;74.80
78788;DHT22;68131;52.508;5.502;2024-01-27T05:44:16;5.10;74.80
78788;DHT22;68131;52.508;5.502;2024-01-27T05:46:45;5.10;74.90
78788;DHT22;68131;52.508;5.502;2024-01-27T05:49:16;5.20;74.90
78788;DHT22;68131;52.508;5.502;2024-01-27T05:51:46;5.20;74.90
78788;DHT22;68131;52.508;5.502;2024-01-27T05:54:16;5.10;74.90
78788;DHT22;68131;52.508;5.502;2024-01-27T05:56:45;5.20;75.00
78788;DHT22;68131;52.508;5.502;2024-01-27T05:59:14;5.20;75.00
78788;DHT22;68131;52.508;5.502;2024-01-27T06:01:43;5.20;75.00
78788;DHT22;68131;52.508;5.502;2024-01-27T06:04:12;5.20;75.00
78788;DHT22;68131;52.508;5.502;2024-01-27T06:06:57;5.10;75.10
78788;DHT22;68131;52.508;5.502;2024-01-27T06:09:26;5.10;75.20
78788;DHT22;68131;52.508;5.502;2024-01-27T06:11:58;5.10;75.20
78788;DHT22;68131;52.508;5.502;2024-01-27T06:14:27;5.10;75.30
78788;DHT22;68131;52.508;5.502;2024-01-27T06:16:59;5.10;75.40
78788;DHT22;68131;52.508;5.502;2024-01-27T06:19:28;5.10;75.50
78788;DHT22;68131;52.508;5.502;2024-01-27T06:22:00;5.10;75.50
78788;DHT22;68131;52.508;5.502;2024-01-27T06:24:29;5.00;75.70
78788;DHT22;68131;52.508;5.502;2024-01-27T06:26:58;5.00;75.80
78788;DHT22;68131;52.508;5.502;2024-01-27T06:29:27;5.10;75.90
78788;DHT22;68131;52.508;5.502;2024-01-27T06:31:57;5.00;75.90
78788;DHT22;68131;52.508;5.502;2024-01-27T06:34:26;5.10;75.90
78788;DHT22;68131;52.508;5.502;2024-01-27T06:36:55;5.10;76.00
78788;DHT22;68131;52.508;5.502;2024-01-27T06:39:27;5.10;76.00
78788;DHT22;68131;52.508;5.502;2024-01-27T06:41:56;5.10;76.10
78788;DHT22;68131;52.508;5.502;2024-01-27T06:44:25;5.10;76.20
78788;DHT22;68131;52.508;5.502;2024-01-27T06:46:55;5.10;76.20
78788;DHT22;68131;52.508;5.502;2024-01-27T06:49:24;5.10;76.30
78788;DHT22;68131;52.508;5.502;2024-01-27T06:51:53;5.10;76.40
78788;DHT22;68131;52.508;5.502;2024-01-27T06:54:22;5.00;76.50
78788;DHT22;68131;52.508;5.502;2024-01-27T06:56:54;5.00;76.60
78788;DHT22;68131;52.508;5.502;2024-01-27T06:59:23;5.10;76.70
78788;DHT22;68131;52.508;5.502;2024-01-27T07:01:52;5.10;76.70
78788;DHT22;68131;52.508;5.502;2024-01-27T07:04:22;5.10;76.70
78788;DHT22;68131;52.508;5.502;2024-01-27T07:06:51;5.10;76.70
78788;DHT22;68131;52.508;5.502;2024-01-27T07:09:21;5.10;76.70
78788;DHT22;68131;52.508;5.502;2024-01-27T07:11:50;5.20;76.70
78788;DHT22;68131;52.508;5.502;2024-01-27T07:14:22;5.20;76.60
78788;DHT22;68131;52.508;5.502;2024-01-27T07:16:51;5.20;76.60
78788;DHT22;68131;52.508;5.502;2024-01-27T07:19:20;5.20;76.60
78788;DHT22;68131;52.508;5.502;2024-01-27T07:21:49;5.20;76.60
78788;DHT22;68131;52.508;5.502;2024-01-27T07:24:19;5.20;76.60
78788;DHT22;68131;52.508;5.502;2024-01-27T07:26:48;5.20;76.50
78788;DHT22;68131;52.508;5.502;2024-01-27T07:29:17;5.10;76.50
78788;DHT22;68131;52.508;5.502;2024-01-27T07:31:49;5.20;76.50
78788;DHT22;68131;52.508;5.502;2024-01-27T07:34:19;5.20;76.50
78788;DHT22;68131;52.508;5.502;2024-01-27T07:36:48;5.20;76.50
78788;DHT22;68131;52.508;5.502;2024-01-27T07:39:17;5.20;76.40
78788;DHT22;68131;52.508;5.502;2024-01-27T07:41:46;5.10;76.40
78788;DHT22;68131;52.508;5.502;2024-01-27T07:44:18;5.20;76.50
78788;DHT22;68131;52.508;5.502;2024-01-27T07:46:50;5.20;76.40
78788;DHT22;68131;52.508;5.502;2024-01-27T07:49:19;5.20;76.50
78788;DHT22;68131;52.508;5.502;2024-01-27T07:51:48;5.20;76.40
78788;DHT22;68131;52.508;5.502;2024-01-27T07:54:21;5.20;76.50
78788;DHT22;68131;52.508;5.502;2024-01-27T07:56:50;5.20;76.40
78788;DHT22;68131;52.508;5.502;2024-01-27T07:59:19;5.30;76.40
78788;DHT22;68131;52.508;5.502;2024-01-27T08:01:50;5.30;76.30
78788;DHT22;68131;52.508;5.502;2024-01-27T08:04:22;5.30;76.30
78788;DHT22;68131;52.508;5.502;2024-01-27T08:06:52;5.30;76.20
78788;DHT22;68131;52.508;5.502;2024-01-27T08:09:22;5.30;76.20
78788;DHT22;68131;52.508;5.502;2024-01-27T08:11:51;5.30;76.20
78788;DHT22;68131;52.508;5.502;2024-01-27T08:14:20;5.40;76.30
78788;DHT22;68131;52.508;5.502;2024-01-27T08:16:53;5.40;76.30
78788;DHT22;68131;52.508;5.502;2024-01-27T08:19:23;5.40;76.30
78788;DHT22;68131;52.508;5.502;2024-01-27T08:21:53;5.50;76.30
78788;DHT22;68131;52.508;5.502;2024-01-27T08:24:22;5.50;76.20
78788;DHT22;68131;52.508;5.502;2024-01-27T08:26:52;5.50;76.20
78788;DHT22;68131;52.508;5.502;2024-01-27T08:29:21;5.60;76.20
78788;DHT22;68131;52.508;5.502;2024-01-27T08:31:53;5.60;76.20
78788;DHT22;68131;52.508;5.502;2024-01-27T08:34:22;5.70;76.30
78788;DHT22;68131;52.508;5.502;2024-01-27T08:36:51;5.80;76.30
78788;DHT22;68131;52.508;5.502;2024-01-27T08:39:24;5.90;76.20
78788;DHT22;68131;52.508;5.502;2024-01-27T08:41:54;5.90;76.20
78788;DHT22;68131;52.508;5.502;2024-01-27T08:44:23;6.00;76.10
78788;DHT22;68131;52.508;5.502;2024-01-27T08:46:54;6.00;76.00
78788;DHT22;68131;52.508;5.502;2024-01-27T08:49:23;6.00;76.10
78788;DHT22;68131;52.508;5.502;2024-01-27T08:51:54;6.00;75.90
78788;DHT22;68131;52.508;5.502;2024-01-27T08:54:26;6.00;76.00
78788;DHT22;68131;52.508;5.502;2024-01-27T08:56:55;6.10;76.00
78788;DHT22;68131;52.508;5.502;2024-01-27T08:59:25;6.10;76.10
78788;DHT22;68131;52.508;5.502;2024-01-27T09:01:56;6.20;76.00
78788;DHT22;68131;52.508;5.502;2024-01-27T09:04:25;6.20;75.90
78788;DHT22;68131;52.508;5.502;2024-01-27T09:06:54;6.30;76.00
78788;DHT22;68131;52.508;5.502;2024-01-27T09:09:24;6.40;75.90
78788;DHT22;68131;52.508;5.502;2024-01-27T09:11:53;6.40;75.70
78788;DHT22;68131;52.508;5.502;2024-01-27T09:14:22;6.40;75.60
78788;DHT22;68131;52.508;5.502;2024-01-27T09:16:51;6.40;75.40
78788;DHT22;68131;52.508;5.502;2024-01-27T09:19:23;6.40;75.50
78788;DHT22;68131;52.508;5.502;2024-01-27T09:21:52;6.40;75.60
78788;DHT22;68131;52.508;5.502;2024-01-27T09:24:21;6.50;75.70
78788;DHT22;68131;52.508;5.502;2024-01-27T09:26:51;6.60;75.80
78788;DHT22;68131;52.508;5.502;2024-01-27T09:29:21;6.80;75.60
78788;DHT22;68131;52.508;5.502;2024-01-27T09:31:50;6.90;75.40
78788;DHT22;68131;52.508;5.502;2024-01-27T09:34:19;7.10;75.30
78788;DHT22;68131;52.508;5.502;2024-01-27T09:36:51;7.20;75.20
78788;DHT22;68131;52.508;5.502;2024-01-27T09:39:20;7.40;75.10
78788;DHT22;68131;52.508;5.502;2024-01-27T09:41:51;7.50;74.80
78788;DHT22;68131;52.508;5.502;2024-01-27T09:44:21;7.60;74.50
78788;DHT22;68131;52.508;5.502;2024-01-27T09:46:53;7.80;74.50
78788;DHT22;68131;52.508;5.502;2024-01-27T09:49:25;7.90;74.40
78788;DHT22;68131;52.508;5.502;2024-01-27T09:51:58;8.00;74.30
78788;DHT22;68131;52.508;5.502;2024-01-27T09:54:27;8.20;73.90
78788;DHT22;68131;52.508;5.502;2024-01-27T09:56:56;8.20;73.30
78788;DHT22;68131;52.508;5.502;2024-01-27T09:59:26;8.30;73.00
78788;DHT22;68131;52.508;5.502;2024-01-27T10:01:56;8.40;72.60
78788;DHT22;68131;52.508;5.502;2024-01-27T10:04:27;8.50;72.40
78788;DHT22;68131;52.508;5.502;2024-01-27T10:07:00;8.50;72.00
78788;DHT22;68131;52.508;5.502;2024-01-27T10:09:30;8.60;71.90
78788;DHT22;68131;52.508;5.502;2024-01-27T10:12:01;8.60;71.90
78788;DHT22;68131;52.508;5.502;2024-01-27T10:14:38;8.60;71.50
78788;DHT22;68131;52.508;5.502;2024-01-27T10:17:10;8.60;71.30
78788;DHT22;68131;52.508;5.502;2024-01-27T10:19:39;8.70;71.20
78788;DHT22;68131;52.508;5.502;2024-01-27T10:22:11;8.70;71.30
78788;DHT22;68131;52.508;5.502;2024-01-27T10:24:40;8.70;71.60
78788;DHT22;68131;52.508;5.502;2024-01-27T10:27:10;8.80;71.30
78788;DHT22;68131;52.508;5.502;2024-01-27T10:29:39;8.80;70.80
78788;DHT22;68131;52.508;5.502;2024-01-27T10:32:08;8.80;70.50
78788;DHT22;68131;52.508;5.502;2024-01-27T10:34:37;8.80;70.70
78788;DHT22;68131;52.508;5.502;2024-01-27T10:37:06;8.90;71.00
78788;DHT22;68131;52.508;5.502;2024-01-27T10:39:38;8.90;70.90
78788;DHT22;68131;52.508;5.502;2024-01-27T10:42:08;9.00;70.40
78788;DHT22;68131;52.508;5.502;2024-01-27T10:44:40;9.00;70.60
78788;DHT22;68131;52.508;5.502;2024-01-27T10:47:12;9.00;70.60
78788;DHT22;68131;52.508;5.502;2024-01-27T10:49:48;9.00;70.50
78788;DHT22;68131;52.508;5.502;2024-01-27T10:52:18;9.10;70.60
78788;DHT22;68131;52.508;5.502;2024-01-27T10:54:51;9.10;70.50
78788;DHT22;68131;52.508;5.502;2024-01-27T10:57:23;9.10;70.40
78788;DHT22;68131;52.508;5.502;2024-01-27T10:59:54;9.20;70.20
78788;DHT22;68131;52.508;5.502;2024-01-27T11:02:24;9.20;70.10
78788;DHT22;68131;52.508;5.502;2024-01-27T11:04:53;9.20;70.00
78788;DHT22;68131;52.508;5.502;2024-01-27T11:07:23;9.20;69.90
78788;DHT22;68131;52.508;5.502;2024-01-27T11:09:55;9.20;69.60
78788;DHT22;68131;52.508;5.502;2024-01-27T11:12:25;9.20;69.40
78788;DHT22;68131;52.508;5.502;2024-01-27T11:14:54;9.20;69.40
78788;DHT22;68131;52.508;5.502;2024-01-27T11:17:25;9.20;69.30
78788;DHT22;68131;52.508;5.502;2024-01-27T11:19:56;9.20;69.50
78788;DHT22;68131;52.508;5.502;2024-01-27T11:22:27;9.20;69.50
78788;DHT22;68131;52.508;5.502;2024-01-27T11:25:14;9.30;69.60
78788;DHT22;68131;52.508;5.502;2024-01-27T11:27:46;9.30;69.60
78788;DHT22;68131;52.508;5.502;2024-01-27T11:30:27;9.30;69.20
78788;DHT22;68131;52.508;5.502;2024-01-27T11:33:01;9.30;68.90
78788;DHT22;68131;52.508;5.502;2024-01-27T11:35:31;9.30;68.90
78788;DHT22;68131;52.508;5.502;2024-01-27T11:38:03;9.30;68.80
78788;DHT22;68131;52.508;5.502;2024-01-27T11:40:47;9.30;69.00
78788;DHT22;68131;52.508;5.502;2024-01-27T11:43:16;9.30;68.60
78788;DHT22;68131;52.508;5.502;2024-01-27T11:45:55;9.20;68.60
78788;DHT22;68131;52.508;5.502;2024-01-27T11:48:24;9.20;68.40
78788;DHT22;68131;52.508;5.502;2024-01-27T11:51:07;9.20;68.50
78788;DHT22;68131;52.508;5.502;2024-01-27T11:53:36;9.10;68.40
78788;DHT22;68131;52.508;5.502;2024-01-27T11:56:10;9.10;68.40
78788;DHT22;68131;52.508;5.502;2024-01-27T11:58:46;9.10;68.50
78788;DHT22;68131;52.508;5.502;2024-01-27T12:01:16;9.10;68.40
78788;DHT22;68131;52.508;5.502;2024-01-27T12:03:45;9.10;68.20
78788;DHT22;68131;52.508;5.502;2024-01-27T12:06:14;9.10;68.20
78788;DHT22;68131;52.508;5.502;2024-01-27T12:08:44;9.10;68.30
78788;DHT22;68131;52.508;5.502;2024-01-27T12:11:16;9.10;67.90
78788;DHT22;68131;52.508;5.502;2024-01-27T12:13:46;9.10;68.00
78788;DHT22;68131;52.508;5.502;2024-01-27T12:16:15;9.10;68.30
78788;DHT22;68131;52.508;5.502;2024-01-27T12:18:45;9.10;68.00
78788;DHT22;68131;52.508;5.502;2024-01-27T12:21:18;9.10;68.10
78788;DHT22;68131;52.508;5.502;2024-01-27T12:23:51;9.10;67.70
78788;DHT22;68131;52.508;5.502;2024-01-27T12:26:25;9.10;67.70
78788;DHT22;68131;52.508;5.502;2024-01-27T12:28:55;9.10;67.40
78788;DHT22;68131;52.508;5.502;2024-01-27T12:31:24;9.10;67.20
78788;DHT22;68131;52.508;5.502;2024-01-27T12:33:55;9.10;67.60
78788;DHT22;68131;52.508;5.502;2024-01-27T12:36:25;9.20;67.80
78788;DHT22;68131;52.508;5.502;2024-01-27T12:38:55;9.20;67.50
78788;DHT22;68131;52.508;5.502;2024-01-27T12:41:28;9.20;67.60
78788;DHT22;68131;52.508;5.502;2024-01-27T12:43:59;9.30;67.70
78788;DHT22;68131;52.508;5.502;2024-01-27T12:46:28;9.30;67.50
78788;DHT22;68131;52.508;5.502;2024-01-27T12:48:57;9.30;67.50
78788;DHT22;68131;52.508;5.502;2024-01-27T12:51:28;9.30;67.30
78788;DHT22;68131;52.508;5.502;2024-01-27T12:53:57;9.40;67.10
78788;DHT22;68131;52.508;5.502;2024-01-27T12:56:28;9.40;67.20
78788;DHT22;68131;52.508;5.502;2024-01-27T12:58:57;9.40;67.10
78788;DHT22;68131;52.508;5.502;2024-01-27T13:01:27;9.40;66.90
78788;DHT22;68131;52.508;5.502;2024-01-27T13:03:56;9.40;66.60
78788;DHT22;68131;52.508;5.502;2024-01-27T13:06:27;9.50;66.90
78788;DHT22;68131;52.508;5.502;2024-01-27T13:08:59;9.50;67.00
78788;DHT22;68131;52.508;5.502;2024-01-27T13:11:33;9.50;67.00
78788;DHT22;68131;52.508;5.502;2024-01-27T13:14:02;9.50;66.80
78788;DHT22;68131;52.508;5.502;2024-01-27T13:16:31;9.50;66.90
78788;DHT22;68131;52.508;5.502;2024-01-27T13:19:03;9.50;66.60
78788;DHT22;68131;52.508;5.502;2024-01-27T13:21:32;9.60;66.70
78788;DHT22;68131;52.508;5.502;2024-01-27T13:24:01;9.60;66.60
78788;DHT22;68131;52.508;5.502;2024-01-27T13:26:33;9.60;66.50
78788;DHT22;68131;52.508;5.502;2024-01-27T13:29:03;9.60;66.40
78788;DHT22;68131;52.508;5.502;2024-01-27T13:31:36;9.70;66.40
78788;DHT22;68131;52.508;5.502;2024-01-27T13:34:05;9.70;66.40
78788;DHT22;68131;52.508;5.502;2024-01-27T13:36:34;9.70;66.50
78788;DHT22;68131;52.508;5.502;2024-01-27T13:39:03;9.70;66.40
78788;DHT22;68131;52.508;5.502;2024-01-27T13:41:35;9.70;66.30
78788;DHT22;68131;52.508;5.502;2024-01-27T13:44:04;9.70;66.40
78788;DHT22;68131;52.508;5.502;2024-01-27T13:46:34;9.70;66.40
78788;DHT22;68131;52.508;5.502;2024-01-27T13:49:04;9.70;66.00
78788;DHT22;68131;52.508;5.502;2024-01-27T13:51:35;9.70;65.70
78788;DHT22;68131;52.508;5.502;2024-01-27T13:54:07;9.60;65.60
78788;DHT22;68131;52.508;5.502;2024-01-27T13:56:39;9.60;65.60
78788;DHT22;68131;52.508;5.502;2024-01-27T13:59:08;9.50;65.80
78788;DHT22;68131;52.508;5.502;2024-01-27T14:01:39;9.50;65.80
78788;DHT22;68131;52.508;5.502;2024-01-27T14:04:08;9.50;65.80
78788;DHT22;68131;52.508;5.502;2024-01-27T14:06:37;9.50;65.90
78788;DHT22;68131;52.508;5.502;2024-01-27T14:09:09;9.50;66.00
78788;DHT22;68131;52.508;5.502;2024-01-27T14:11:42;9.50;66.00
78788;DHT22;68131;52.508;5.502;2024-01-27T14:14:11;9.50;66.00
78788;DHT22;68131;52.508;5.502;2024-01-27T14:16:43;9.50;66.10
78788;DHT22;68131;52.508;5.502;2024-01-27T14:19:12;9.50;66.00
78788;DHT22;68131;52.508;5.502;2024-01-27T14:21:41;9.50;66.10
78788;DHT22;68131;52.508;5.502;2024-01-27T14:24:10;9.50;66.20
78788;DHT22;68131;52.508;5.502;2024-01-27T14:26:42;9.50;66.20
78788;DHT22;68131;52.508;5.502;2024-01-27T14:29:11;9.50;66.10
78788;DHT22;68131;52.508;5.502;2024-01-27T14:31:43;9.50;65.90
78788;DHT22;68131;52.508;5.502;2024-01-27T14:34:12;9.50;66.00
78788;DHT22;68131;52.508;5.502;2024-01-27T14:36:42;9.40;66.00
78788;DHT22;68131;52.508;5.502;2024-01-27T14:39:11;9.40;66.20
78788;DHT22;68131;52.508;5.502;2024-01-27T14:41:43;9.40;66.30
78788;DHT22;68131;52.508;5.502;2024-01-27T14:44:12;9.40;66.30
78788;DHT22;68131;52.508;5.502;2024-01-27T14:46:41;9.40;66.50
78788;DHT22;68131;52.508;5.502;2024-01-27T14:49:11;9.40;66.50
78788;DHT22;68131;52.508;5.502;2024-01-27T14:51:40;9.40;66.60
78788;DHT22;68131;52.508;5.502;2024-01-27T14:54:09;9.30;66.40
78788;DHT22;68131;52.508;5.502;2024-01-27T14:56:40;9.30;66.50
78788;DHT22;68131;52.508;5.502;2024-01-27T14:59:12;9.20;66.50
78788;DHT22;68131;52.508;5.502;2024-01-27T15:01:42;9.20;66.60
78788;DHT22;68131;52.508;5.502;2024-01-27T15:04:12;9.20;66.80
78788;DHT22;68131;52.508;5.502;2024-01-27T15:06:42;9.20;66.90
78788;DHT22;68131;52.508;5.502;2024-01-27T15:09:21;9.10;66.70
78788;DHT22;68131;52.508;5.502;2024-01-27T15:11:50;9.10;66.90
78788;DHT22;68131;52.508;5.502;2024-01-27T15:14:22;9.10;67.00
78788;DHT22;68131;52.508;5.502;2024-01-27T15:16:52;9.10;67.10
78788;DHT22;68131;52.508;5.502;2024-01-27T15:19:23;9.10;67.20
78788;DHT22;68131;52.508;5.502;2024-01-27T15:21:52;9.00;67.20
78788;DHT22;68131;52.508;5.502;2024-01-27T15:24:21;9.00;67.20
78788;DHT22;68131;52.508;5.502;2024-01-27T15:26:50;9.00;67.20
78788;DHT22;68131;52.508;5.502;2024-01-27T15:29:22;8.90;67.30
78788;DHT22;68131;52.508;5.502;2024-01-27T15:31:51;8.90;67.40
78788;DHT22;68131;52.508;5.502;2024-01-27T15:34:21;8.90;67.40
78788;DHT22;68131;52.508;5.502;2024-01-27T15:36:51;8.80;67.50
78788;DHT22;68131;52.508;5.502;2024-01-27T15:39:20;8.80;67.60
78788;DHT22;68131;52.508;5.502;2024-01-27T15:41:49;8.80;67.60
78788;DHT22;68131;52.508;5.502;2024-01-27T15:44:18;8.80;67.70
78788;DHT22;68131;52.508;5.502;2024-01-27T15:46:51;8.70;67.80
78788;DHT22;68131;52.508;5.502;2024-01-27T15:49:22;8.70;67.90
78788;DHT22;68131;52.508;5.502;2024-01-27T15:51:51;8.70;68.00
78788;DHT22;68131;52.508;5.502;2024-01-27T15:54:20;8.60;68.00
78788;DHT22;68131;52.508;5.502;2024-01-27T15:56:50;8.60;68.10
78788;DHT22;68131;52.508;5.502;2024-01-27T15:59:19;8.50;68.30
78788;DHT22;68131;52.508;5.502;2024-01-27T16:01:50;8.50;68.40
78788;DHT22;68131;52.508;5.502;2024-01-27T16:04:20;8.40;68.50